ADDS TAF Board (Experimental) INFO Settings
IDs: Format: Expanded Condensed

KSFO - San Francisco Intl, CA, US

Issued at 1720 UTC 03 Aug 2015
Updated at: 1909 UTC 03 Aug 2015
Time1856Z 03/20Z 03/21Z 03/22Z 03/23Z 04/00Z 04/01Z 04/02Z 04/03Z 04/04Z 04/05Z 04/06Z 04/07Z 04/08Z
Type OBS PRVL PRVL PRVL PRVL PRVL PRVL PRVL PRVL PRVL PRVL PRVL PRVL PRVL
VIS 10 >6 >6 >6 >6 >6 >6 >6 >6 >6 >6 >6 >6 >6
CIG -- -- -- -- -- -- -- -- -- -- -- 15 15 12
Cover SCT FEW FEW FEW FEW FEW FEW FEW FEW FEW FEW BKN BKN OVC
FltCat VFR VFR VFR VFR VFR VFR VFR VFR VFR VFR VFR MVFR MVFR MVFR
WX -- -- -- -- -- -- -- -- -- -- -- -- -- --
WDir 270 290 290 290 290 290 290 290 290 290 290 290 290 290
WSpd 12 17 17 17 17 17 17 17 17 13 13 10 10 8
WGst 17 22 22 22 22 22 22 22 22 -- -- -- -- --
R01/19
XWnd 11 17 17 17 17 17 17 17 17 13 13 10 10 8
XGst 15 22 22 22 22 22 22 22 22 -- -- -- -- --
HWnd -5 -2 -2 -2 -2 -2 -2 -2 -2 -2 -2 -1 -1 -1
HGst -8 -3 -3 -3 -3 -3 -3 -3 -3 -- -- -- -- --
R10/28
XWnd -5 -2 -2 -2 -2 -2 -2 -2 -2 -2 -2 -1 -1 -1
XGst -8 -3 -3 -3 -3 -3 -3 -3 -3 -- -- -- -- --
HWnd -11 -17 -17 -17 -17 -17 -17 -17 -17 -13 -13 -10 -10 -8
HGst -15 -22 -22 -22 -22 -22 -22 -22 -22 -- -- -- -- --

NOTE: TEMPO conditions in [brackets]. Keep in mind TEMPO conditions might be better (lower impact) than prevailing conditions.

Raw TAF
KSFO 031720Z 0318/0424 28012KT P6SM SCT030
  FM032000 29017G22KT P6SM FEW030 FEW250
  FM040400 29013KT P6SM FEW015
  FM040600 29010KT P6SM BKN015
  FM040800 29008KT P6SM OVC012
  FM041700 26008KT P6SM FEW012 SCT015


Raw METAR
KSFO 031856Z 27012G17KT 10SM SCT031 SCT180 21/12 A2999 RMK AO2 SLP154 T02060117
KSFO 031756Z 26008KT 240V300 10SM SCT028 SCT031 SCT180 21/12 A2998 RMK AO2 SLP153 T02060117 10206 20172 53004
KSFO 031656Z 28011G16KT 10SM SCT028 BKN030 20/12 A2998 RMK AO2 SLP152 T02000117

METAR Board
Radar Display
Forecast Discussion

TAF Board Legend

Potential Impact
Threat None Slight Moderate High
Visibility (sm) ≥5.1 5.1>X≥3 3>X≥1 <1
Ceiling (100 ft) ≥30.1 30.1>X≥10 10>X≥5 <5
Wind Speed (kt) <10 10≤X<20 20≤X<30 ≥30
Wind Gust (kt) <15 15≤X<25 25≤X<35 ≥35
Weather No Wx Reported VCTS,-TS,-FZRA,SN TS,FZRA +TS,+FZRA,+SN